createdAt,value
2024-05-09T00:01:06.614Z,45.03
2024-05-09T00:03:37.105Z,45.14
2024-05-09T00:06:10.344Z,45.15
2024-05-09T00:08:40.799Z,45.27
2024-05-09T00:11:14.742Z,45.10
2024-05-09T00:13:45.610Z,45.15
2024-05-09T00:16:16.269Z,45.06
2024-05-09T00:18:46.646Z,44.97
2024-05-09T00:21:17.164Z,44.88
2024-05-09T00:23:47.496Z,44.76
2024-05-09T00:26:18.987Z,44.67
2024-05-09T00:28:49.283Z,44.77
2024-05-09T00:31:19.823Z,44.87
2024-05-09T00:33:50.172Z,45.15
2024-05-09T00:36:20.744Z,44.93
2024-05-09T00:38:51.630Z,45.14
2024-05-09T00:41:21.932Z,45.12
2024-05-09T00:43:52.424Z,45.22
2024-05-09T00:46:23.054Z,45.17
2024-05-09T00:48:53.708Z,45.23
2024-05-09T00:51:24.470Z,45.27
2024-05-09T00:53:55.676Z,45.16
2024-05-09T00:56:26.303Z,45.37
2024-05-09T00:58:57.452Z,45.37
2024-05-09T01:01:28.952Z,45.27
2024-05-09T01:04:00.111Z,45.22
2024-05-09T01:06:31.541Z,45.29
2024-05-09T01:09:01.860Z,45.17
2024-05-09T01:11:38.844Z,45.21
2024-05-09T01:14:09.609Z,45.30
2024-05-09T01:16:41.133Z,45.38
2024-05-09T01:19:16.181Z,45.12
2024-05-09T01:21:47.155Z,45.18
2024-05-09T01:24:17.860Z,45.04
2024-05-09T01:26:48.261Z,44.97
2024-05-09T01:29:19.023Z,45.03
2024-05-09T01:31:52.023Z,45.10
2024-05-09T01:34:22.649Z,44.97
2024-05-09T01:36:53.286Z,45.03
2024-05-09T01:39:23.899Z,44.96
2024-05-09T01:41:54.421Z,45.00
2024-05-09T01:44:24.875Z,44.80
2024-05-09T01:46:55.723Z,44.81
2024-05-09T01:49:26.574Z,45.02
2024-05-09T01:51:57.157Z,45.05
2024-05-09T01:54:27.912Z,45.08
2024-05-09T01:56:58.839Z,44.94
2024-05-09T01:59:29.252Z,44.98
2024-05-09T02:01:59.891Z,45.13
2024-05-09T02:04:30.719Z,45.23
2024-05-09T02:07:01.326Z,44.92
2024-05-09T02:09:31.917Z,44.88
2024-05-09T02:12:02.354Z,44.78
2024-05-09T02:14:32.968Z,44.72
2024-05-09T02:17:03.559Z,44.78
2024-05-09T02:19:34.452Z,44.88
2024-05-09T02:22:05.097Z,44.85
2024-05-09T02:24:35.876Z,44.83
2024-05-09T02:27:06.967Z,44.84
2024-05-09T02:29:37.906Z,44.80
2024-05-09T02:32:09.469Z,44.91
2024-05-09T02:34:39.957Z,44.94
2024-05-09T02:37:10.458Z,45.00
2024-05-09T02:39:40.894Z,44.93
2024-05-09T02:42:11.612Z,44.99
2024-05-09T02:44:42.085Z,44.94
2024-05-09T02:47:12.807Z,45.10
2024-05-09T02:49:43.660Z,45.08
2024-05-09T02:52:17.700Z,45.02
2024-05-09T02:54:48.185Z,45.07
2024-05-09T02:57:18.990Z,45.01
2024-05-09T02:59:49.944Z,45.11
2024-05-09T03:02:20.382Z,45.14
2024-05-09T03:04:50.834Z,45.18
2024-05-09T03:07:21.208Z,45.13
2024-05-09T03:09:51.814Z,45.24
2024-05-09T03:12:22.165Z,45.15
2024-05-09T03:14:53.482Z,45.15
2024-05-09T03:17:24.672Z,45.20
2024-05-09T03:19:55.484Z,45.33
2024-05-09T03:22:26.589Z,45.24
2024-05-09T03:24:57.248Z,45.19
2024-05-09T03:27:27.682Z,45.35
2024-05-09T03:29:58.340Z,45.17
2024-05-09T03:32:28.762Z,45.11
2024-05-09T03:34:59.291Z,45.25
2024-05-09T03:37:29.567Z,45.34
2024-05-09T03:40:00.006Z,45.29
2024-05-09T03:42:31.049Z,45.43
2024-05-09T03:45:01.302Z,45.44
2024-05-09T03:47:35.770Z,45.45
2024-05-09T03:50:14.934Z,45.48
2024-05-09T03:52:48.732Z,45.60
2024-05-09T03:55:19.005Z,45.56
2024-05-09T03:57:49.236Z,45.41
2024-05-09T04:00:30.048Z,45.55
2024-05-09T04:03:08.535Z,45.57
2024-05-09T04:05:43.696Z,45.51
2024-05-09T04:08:16.136Z,45.53
2024-05-09T04:10:48.395Z,45.67
2024-05-09T04:13:19.016Z,45.67
2024-05-09T04:15:49.800Z,45.69
2024-05-09T04:18:20.662Z,45.71
2024-05-09T04:20:51.172Z,45.76
2024-05-09T04:23:21.920Z,45.82
2024-05-09T04:25:52.761Z,45.87
2024-05-09T04:28:23.944Z,45.98
2024-05-09T04:30:54.409Z,45.96
2024-05-09T04:33:25.110Z,45.99
2024-05-09T04:35:55.752Z,46.07
2024-05-09T04:38:26.028Z,45.93
2024-05-09T04:40:56.580Z,46.00
2024-05-09T04:43:27.192Z,45.97
2024-05-09T04:45:57.587Z,46.05
2024-05-09T04:48:28.569Z,45.92
2024-05-09T04:50:59.428Z,46.04
2024-05-09T04:53:30.305Z,46.14
2024-05-09T04:56:00.762Z,45.97
2024-05-09T04:58:31.247Z,46.18
2024-05-09T05:01:02.229Z,46.15
2024-05-09T05:03:33.041Z,46.03
2024-05-09T05:06:03.654Z,45.93
2024-05-09T05:08:35.277Z,45.88
2024-05-09T05:11:06.198Z,45.85
2024-05-09T05:13:40.134Z,45.92
2024-05-09T05:16:12.162Z,45.92
2024-05-09T05:18:44.392Z,45.73
2024-05-09T05:21:15.178Z,45.75
2024-05-09T05:23:45.747Z,45.83
2024-05-09T05:26:20.117Z,45.72
2024-05-09T05:28:51.251Z,45.75
2024-05-09T05:31:22.489Z,45.65
2024-05-09T05:33:53.131Z,45.35
2024-05-09T05:36:23.653Z,45.37
2024-05-09T05:38:53.886Z,45.31
2024-05-09T05:41:24.397Z,45.26
2024-05-09T05:43:54.813Z,45.12
2024-05-09T05:46:25.269Z,45.18
2024-05-09T05:48:56.282Z,45.07
2024-05-09T05:51:26.797Z,45.12
2024-05-09T05:53:57.041Z,44.99
2024-05-09T05:56:28.600Z,44.90
2024-05-09T05:58:58.908Z,44.96
2024-05-09T06:01:29.523Z,44.88
2024-05-09T06:04:00.120Z,44.94
2024-05-09T06:06:30.646Z,45.00
2024-05-09T06:09:01.112Z,44.95
2024-05-09T06:11:31.814Z,44.88
2024-05-09T06:14:02.335Z,44.84
2024-05-09T06:16:33.274Z,44.91
2024-05-09T06:19:04.185Z,44.77
2024-05-09T06:21:34.707Z,44.77
2024-05-09T06:24:06.724Z,44.89
2024-05-09T06:26:37.279Z,44.77
2024-05-09T06:29:07.874Z,44.94
2024-05-09T06:31:42.490Z,44.58
2024-05-09T06:34:13.522Z,44.68
2024-05-09T06:36:43.950Z,44.81
2024-05-09T06:39:14.615Z,44.60
2024-05-09T06:41:44.982Z,44.66
2024-05-09T06:44:15.788Z,44.84
2024-05-09T06:46:46.991Z,44.93
2024-05-09T06:49:17.792Z,44.86
2024-05-09T06:51:48.711Z,45.13
2024-05-09T06:54:19.320Z,45.05
2024-05-09T06:56:49.692Z,44.91
2024-05-09T06:59:20.389Z,44.82
2024-05-09T07:01:51.030Z,44.72
2024-05-09T07:04:21.410Z,44.82
2024-05-09T07:06:52.018Z,44.67
2024-05-09T07:09:22.387Z,44.78
2024-05-09T07:11:52.981Z,44.62
2024-05-09T07:14:23.608Z,44.54
2024-05-09T07:16:54.271Z,44.84
2024-05-09T07:19:25.688Z,44.57
2024-05-09T07:21:56.260Z,44.52
2024-05-09T07:24:26.789Z,44.54
2024-05-09T07:26:57.636Z,44.42
2024-05-09T07:29:28.061Z,44.29
2024-05-09T07:31:58.702Z,44.19
2024-05-09T07:34:29.257Z,44.23
2024-05-09T07:36:59.490Z,44.25
2024-05-09T07:39:30.307Z,44.11
2024-05-09T07:42:00.636Z,44.02
2024-05-09T07:44:31.561Z,43.93
2024-05-09T07:54:44.358Z,43.93
2024-05-09T07:57:15.393Z,43.85
2024-05-09T07:59:46.110Z,44.06
2024-05-09T08:02:16.960Z,43.89
2024-05-09T08:04:47.670Z,43.77
2024-05-09T08:07:18.897Z,43.61
2024-05-09T08:09:49.444Z,43.62
2024-05-09T08:12:23.026Z,43.58
2024-05-09T08:14:55.203Z,43.74
2024-05-09T08:17:25.559Z,43.69
2024-05-09T08:19:56.340Z,43.58
2024-05-09T08:22:26.836Z,43.20
2024-05-09T08:24:57.428Z,43.12
2024-05-09T08:27:28.108Z,42.93
2024-05-09T08:29:58.473Z,42.90
2024-05-09T08:32:32.082Z,42.86
2024-05-09T08:35:02.756Z,42.86
2024-05-09T08:37:37.924Z,42.63
2024-05-09T08:40:23.508Z,42.46
2024-05-09T08:43:01.059Z,42.37
2024-05-09T08:45:33.691Z,42.40
2024-05-09T08:48:07.457Z,42.36
2024-05-09T08:50:41.164Z,41.99
2024-05-09T08:53:11.976Z,41.95
2024-05-09T08:55:44.049Z,42.00
2024-05-09T08:58:19.042Z,41.91
2024-05-09T09:00:50.131Z,41.90
2024-05-09T09:03:23.082Z,41.88
2024-05-09T09:05:59.640Z,41.65
2024-05-09T09:08:30.670Z,41.57
2024-05-09T09:11:01.723Z,41.70
2024-05-09T09:13:32.316Z,41.28
2024-05-09T09:16:03.456Z,41.24
2024-05-09T09:18:34.338Z,41.26
2024-05-09T09:21:06.056Z,41.05
2024-05-09T09:23:36.339Z,41.04
2024-05-09T09:26:07.138Z,40.92
2024-05-09T09:28:40.411Z,40.77
2024-05-09T09:31:10.862Z,40.48
2024-05-09T09:33:45.375Z,40.47
2024-05-09T09:36:18.348Z,40.37
2024-05-09T09:38:51.936Z,40.29
2024-05-09T09:41:27.109Z,40.38
2024-05-09T09:43:59.570Z,40.21
2024-05-09T09:46:31.655Z,40.23
2024-05-09T09:49:02.673Z,40.28
2024-05-09T09:51:34.548Z,40.07
2024-05-09T09:54:06.753Z,40.04
2024-05-09T09:56:39.796Z,39.99
2024-05-09T09:59:12.622Z,39.68
2024-05-09T10:01:44.664Z,39.82
2024-05-09T10:04:17.276Z,39.55
2024-05-09T10:06:51.354Z,39.51
2024-05-09T10:09:23.585Z,39.47
2024-05-09T10:11:59.855Z,39.35
2024-05-09T10:14:33.237Z,39.38
2024-05-09T10:17:08.008Z,39.53
2024-05-09T10:19:38.825Z,39.26
2024-05-09T10:22:09.700Z,39.25
2024-05-09T10:24:53.475Z,39.06
2024-05-09T10:27:29.656Z,39.13
2024-05-09T10:30:01.183Z,38.98
2024-05-09T10:32:38.851Z,38.97
2024-05-09T10:35:12.366Z,38.79
2024-05-09T10:37:43.263Z,38.57
2024-05-09T10:40:25.867Z,38.31
2024-05-09T10:43:03.380Z,37.71
2024-05-09T10:45:37.390Z,37.43
2024-05-09T10:48:09.800Z,37.49
2024-05-09T10:50:43.478Z,37.48
2024-05-09T10:53:13.883Z,37.20
2024-05-09T10:55:44.729Z,37.51
2024-05-09T10:58:19.903Z,37.31
2024-05-09T11:00:51.601Z,36.94
2024-05-09T11:03:23.682Z,37.05
2024-05-09T11:05:55.068Z,37.47
2024-05-09T11:08:26.133Z,37.42
2024-05-09T11:11:00.256Z,37.06
2024-05-09T11:13:32.040Z,37.08
2024-05-09T11:16:03.272Z,37.04
2024-05-09T11:18:37.909Z,36.96
2024-05-09T11:21:14.276Z,36.63
2024-05-09T11:23:44.877Z,36.80
2024-05-09T11:26:15.724Z,36.63
2024-05-09T11:28:47.402Z,36.36
2024-05-09T11:31:17.722Z,36.19
2024-05-09T11:33:48.240Z,36.33
2024-05-09T11:36:18.976Z,36.30
2024-05-09T11:38:49.661Z,36.52
2024-05-09T11:41:20.718Z,36.47
2024-05-09T11:43:51.170Z,36.48
2024-05-09T11:46:21.786Z,36.20
2024-05-09T11:48:52.764Z,35.99
2024-05-09T11:51:23.334Z,35.97
2024-05-09T11:53:53.870Z,35.78
2024-05-09T11:56:24.303Z,35.82
2024-05-09T11:58:54.769Z,35.85
2024-05-09T12:01:27.699Z,35.59
2024-05-09T12:03:58.474Z,35.38
2024-05-09T12:06:30.055Z,35.01
2024-05-09T12:09:01.017Z,34.93
2024-05-09T12:11:31.417Z,34.86
2024-05-09T12:14:01.794Z,34.86
2024-05-09T12:16:32.358Z,34.69
2024-05-09T12:19:03.608Z,34.52
2024-05-09T12:21:33.853Z,34.11
2024-05-09T12:24:04.348Z,34.05
2024-05-09T12:26:34.950Z,34.09
2024-05-09T12:29:05.154Z,34.14
2024-05-09T12:31:35.481Z,34.09
2024-05-09T12:34:05.907Z,34.31
2024-05-09T12:36:36.640Z,34.45
2024-05-09T12:39:09.144Z,34.45
2024-05-09T12:41:39.438Z,34.32
2024-05-09T12:44:09.677Z,34.48
2024-05-09T12:46:40.094Z,34.24
2024-05-09T12:49:11.443Z,34.18
2024-05-09T12:51:42.435Z,33.93
2024-05-09T12:54:12.682Z,34.06
2024-05-09T12:56:43.235Z,34.16
2024-05-09T12:59:13.450Z,34.23
2024-05-09T13:01:43.787Z,34.25
2024-05-09T13:04:14.351Z,34.34
2024-05-09T13:06:45.470Z,34.30
2024-05-09T13:09:16.011Z,33.97
2024-05-09T13:11:46.430Z,34.01
2024-05-09T13:14:16.933Z,33.88
2024-05-09T13:16:47.251Z,33.61
2024-05-09T13:19:18.103Z,33.64
2024-05-09T13:21:49.016Z,33.71
2024-05-09T13:24:19.473Z,33.65
2024-05-09T13:26:49.927Z,33.64
2024-05-09T13:29:20.186Z,33.48
2024-05-09T13:31:50.550Z,33.43
2024-05-09T13:34:20.856Z,33.46
2024-05-09T13:36:51.267Z,33.30
2024-05-09T13:39:21.572Z,33.25
2024-05-09T13:41:52.082Z,33.33
2024-05-09T13:44:22.505Z,33.45
2024-05-09T13:46:53.348Z,33.62
2024-05-09T13:49:23.914Z,33.49
2024-05-09T13:51:54.301Z,33.65
2024-05-09T13:54:24.993Z,33.47
2024-05-09T13:56:55.426Z,33.49
2024-05-09T13:59:25.663Z,33.59
2024-05-09T14:01:56.486Z,33.76
2024-05-09T14:04:27.306Z,33.71
2024-05-09T14:06:58.161Z,33.59
2024-05-09T14:09:30.478Z,33.51
2024-05-09T14:12:01.053Z,33.47
2024-05-09T14:14:31.577Z,33.36
2024-05-09T14:17:02.613Z,33.03
2024-05-09T14:19:33.035Z,33.07
2024-05-09T14:22:05.934Z,33.01
2024-05-09T14:24:36.698Z,33.19
2024-05-09T14:27:08.620Z,33.24
2024-05-09T14:29:38.847Z,33.27
2024-05-09T14:32:09.913Z,33.36
2024-05-09T14:34:40.703Z,33.33
2024-05-09T14:37:12.052Z,33.14
2024-05-09T14:39:42.306Z,32.85
2024-05-09T14:42:13.088Z,32.87
2024-05-09T14:44:43.384Z,33.00
2024-05-09T14:47:15.897Z,33.01
2024-05-09T14:49:46.616Z,33.20
2024-05-09T14:52:17.764Z,33.17
2024-05-09T14:54:51.303Z,33.14
2024-05-09T14:57:24.088Z,33.10
2024-05-09T14:59:54.436Z,33.24
2024-05-09T15:02:25.217Z,33.08
2024-05-09T15:04:55.766Z,32.77
2024-05-09T15:07:26.464Z,32.78
2024-05-09T15:10:00.254Z,32.84
2024-05-09T15:12:31.213Z,32.86
2024-05-09T15:15:01.445Z,33.04
2024-05-09T15:17:32.734Z,33.00
2024-05-09T15:20:09.074Z,33.08
2024-05-09T15:22:40.106Z,33.02
2024-05-09T15:25:12.121Z,33.02
2024-05-09T15:27:42.721Z,32.88
2024-05-09T15:30:15.571Z,32.68
2024-05-09T15:32:48.812Z,32.84
2024-05-09T15:35:19.404Z,32.81
2024-05-09T15:37:50.174Z,32.76
2024-05-09T15:40:30.550Z,32.94
2024-05-09T15:43:10.643Z,32.92
2024-05-09T15:45:42.406Z,33.04
2024-05-09T15:48:14.096Z,32.81
2024-05-09T15:50:44.824Z,32.97
2024-05-09T15:53:15.593Z,33.72
2024-05-09T15:55:46.298Z,33.11
2024-05-09T15:58:17.180Z,33.11
2024-05-09T16:00:49.657Z,33.22
2024-05-09T16:03:22.389Z,33.42
2024-05-09T16:05:53.352Z,33.57
2024-05-09T16:08:24.491Z,33.63
2024-05-09T16:10:55.273Z,33.43
2024-05-09T16:13:25.710Z,33.53
2024-05-09T16:15:56.229Z,33.58
2024-05-09T16:18:27.260Z,33.58
2024-05-09T16:21:00.135Z,33.47
2024-05-09T16:23:30.985Z,33.40
2024-05-09T16:26:01.487Z,33.42
2024-05-09T16:28:32.132Z,33.46
2024-05-09T16:31:02.429Z,33.32
2024-05-09T16:33:32.996Z,33.28
2024-05-09T16:36:03.559Z,33.26
2024-05-09T16:38:34.179Z,33.51
2024-05-09T16:41:04.846Z,33.60
2024-05-09T16:43:36.108Z,33.20
2024-05-09T16:46:08.729Z,32.93
2024-05-09T16:48:40.946Z,33.02
2024-05-09T16:51:12.084Z,33.22
2024-05-09T16:53:42.543Z,33.34
2024-05-09T16:56:13.656Z,33.20
2024-05-09T16:58:44.331Z,33.24
2024-05-09T17:01:14.983Z,33.23
2024-05-09T17:03:46.191Z,33.60
2024-05-09T17:06:17.148Z,33.24
2024-05-09T17:08:47.821Z,33.29
2024-05-09T17:11:20.213Z,33.34
2024-05-09T17:13:50.774Z,33.32
2024-05-09T17:16:21.837Z,33.27
2024-05-09T17:18:52.683Z,33.14
2024-05-09T17:21:23.086Z,33.29
2024-05-09T17:23:55.543Z,33.06
2024-05-09T17:26:25.853Z,33.34
2024-05-09T17:28:56.197Z,33.11
2024-05-09T17:31:27.069Z,33.35
2024-05-09T17:33:58.439Z,33.39
2024-05-09T17:36:28.918Z,33.40
2024-05-09T17:38:59.474Z,33.51
2024-05-09T17:41:29.675Z,33.51
2024-05-09T17:44:00.010Z,33.59
2024-05-09T17:46:30.534Z,33.56
2024-05-09T17:49:01.475Z,33.64
2024-05-09T17:51:32.893Z,33.65
2024-05-09T17:54:03.353Z,33.67
2024-05-09T17:56:33.892Z,33.66
2024-05-09T17:59:05.972Z,33.64
2024-05-09T18:01:37.666Z,33.83
2024-05-09T18:04:08.588Z,34.25
2024-05-09T18:06:39.691Z,34.56
2024-05-09T18:09:10.190Z,34.90
2024-05-09T18:11:40.847Z,34.82
2024-05-09T18:14:11.176Z,35.01
2024-05-09T18:16:41.676Z,35.15
2024-05-09T18:19:12.372Z,34.97
2024-05-09T18:21:42.901Z,35.22
2024-05-09T18:24:13.224Z,35.54
2024-05-09T18:26:43.923Z,35.51
2024-05-09T18:29:14.383Z,35.55
2024-05-09T18:31:44.651Z,35.61
2024-05-09T18:34:15.238Z,35.51
2024-05-09T18:36:46.522Z,35.53
2024-05-09T18:39:17.309Z,35.73
2024-05-09T18:41:47.457Z,35.68
2024-05-09T18:44:18.362Z,35.66
2024-05-09T18:46:48.761Z,35.77
2024-05-09T18:49:19.396Z,35.73
2024-05-09T18:51:49.944Z,35.87
2024-05-09T18:54:20.073Z,35.96
2024-05-09T18:56:50.177Z,36.12
2024-05-09T18:59:20.867Z,35.95
2024-05-09T19:01:52.287Z,36.01
2024-05-09T19:04:22.704Z,36.23
2024-05-09T19:06:53.232Z,36.28
2024-05-09T19:09:23.518Z,36.56
2024-05-09T19:11:53.682Z,36.59
2024-05-09T19:14:24.873Z,36.73
2024-05-09T19:16:55.305Z,36.73
2024-05-09T19:19:27.909Z,36.80
2024-05-09T19:21:59.146Z,36.92
2024-05-09T19:24:29.622Z,37.07
2024-05-09T19:27:01.625Z,37.05
2024-05-09T19:29:32.133Z,37.11
2024-05-09T19:32:02.606Z,37.06
2024-05-09T19:34:33.147Z,37.07
2024-05-09T19:37:03.851Z,37.14
2024-05-09T19:39:34.829Z,37.15
2024-05-09T19:42:06.358Z,37.37
2024-05-09T19:44:36.700Z,37.17
2024-05-09T19:47:08.012Z,37.29
2024-05-09T19:49:38.485Z,37.30
2024-05-09T19:52:09.092Z,37.34
2024-05-09T19:54:39.670Z,37.28
2024-05-09T19:57:10.072Z,37.26
2024-05-09T19:59:40.541Z,37.04
2024-05-09T20:02:11.190Z,37.30
2024-05-09T20:04:45.505Z,37.40
2024-05-09T20:07:16.349Z,37.49
2024-05-09T20:09:47.026Z,37.57
2024-05-09T20:12:17.429Z,37.58
2024-05-09T20:14:47.696Z,37.66
2024-05-09T20:17:18.127Z,37.69
2024-05-09T20:19:48.637Z,37.74
2024-05-09T20:22:19.364Z,37.67
2024-05-09T20:24:49.799Z,37.84
2024-05-09T20:27:20.877Z,37.84
2024-05-09T20:29:51.444Z,37.85
2024-05-09T20:32:21.843Z,37.75
2024-05-09T20:34:52.190Z,37.74
2024-05-09T20:37:22.990Z,37.79
2024-05-09T20:39:53.456Z,37.83
2024-05-09T20:42:23.631Z,37.54
2024-05-09T20:44:53.779Z,37.38
2024-05-09T20:47:24.317Z,37.40
2024-05-09T20:49:54.720Z,37.55
2024-05-09T20:52:25.046Z,37.50
2024-05-09T20:54:55.426Z,37.37
2024-05-09T20:57:26.089Z,37.49
2024-05-09T20:59:56.512Z,37.17
2024-05-09T21:02:27.299Z,37.37
2024-05-09T21:04:58.190Z,37.39
2024-05-09T21:07:28.715Z,37.27
2024-05-09T21:09:59.252Z,37.40
2024-05-09T21:12:29.782Z,37.29
2024-05-09T21:15:00.192Z,37.24
2024-05-09T21:17:30.680Z,37.13
2024-05-09T21:20:01.337Z,37.13
2024-05-09T21:22:31.857Z,37.20
2024-05-09T21:25:02.543Z,37.12
2024-05-09T21:27:34.352Z,37.01
2024-05-09T21:30:07.836Z,37.02
2024-05-09T21:32:41.271Z,37.20
2024-05-09T21:35:12.583Z,37.33
2024-05-09T21:37:43.164Z,37.26
2024-05-09T21:40:24.113Z,37.23
2024-05-09T21:43:01.324Z,37.14
2024-05-09T21:45:32.023Z,36.82
2024-05-09T21:48:03.827Z,36.56
2024-05-09T21:50:40.120Z,36.81
2024-05-09T21:53:13.573Z,36.74
2024-05-09T21:55:44.931Z,36.68
2024-05-09T21:58:15.961Z,36.67
2024-05-09T22:00:46.787Z,36.73
2024-05-09T22:03:17.634Z,36.73
2024-05-09T22:05:48.027Z,36.73
2024-05-09T22:08:18.960Z,36.69
2024-05-09T22:10:50.806Z,36.85
2024-05-09T22:13:21.410Z,36.79
2024-05-09T22:15:52.144Z,36.95
2024-05-09T22:18:22.606Z,36.91
2024-05-09T22:20:53.707Z,37.00
2024-05-09T22:23:24.194Z,36.95
2024-05-09T22:25:56.438Z,37.08
2024-05-09T22:28:26.953Z,37.06
2024-05-09T22:30:57.545Z,36.60
2024-05-09T22:33:28.131Z,36.52
2024-05-09T22:36:00.177Z,36.50
2024-05-09T22:38:30.702Z,36.47
2024-05-09T22:41:01.293Z,36.56
2024-05-09T22:43:32.100Z,36.61
2024-05-09T22:46:03.726Z,36.49
2024-05-09T22:48:34.246Z,36.66
2024-05-09T22:51:05.251Z,36.68
2024-05-09T22:53:35.684Z,36.64
2024-05-09T22:56:07.354Z,36.78
2024-05-09T22:58:37.853Z,36.83
2024-05-09T23:01:14.991Z,36.68
2024-05-09T23:03:45.891Z,36.72
2024-05-09T23:06:16.400Z,36.72
2024-05-09T23:08:46.622Z,36.70
2024-05-09T23:11:17.324Z,36.92
2024-05-09T23:13:47.878Z,36.94
2024-05-09T23:16:18.372Z,37.00
2024-05-09T23:18:48.869Z,36.92
2024-05-09T23:21:19.468Z,36.96
2024-05-09T23:23:49.859Z,36.93
2024-05-09T23:26:20.520Z,36.96
2024-05-09T23:28:51.231Z,36.83
2024-05-09T23:31:21.735Z,36.98
2024-05-09T23:33:54.618Z,36.86
2024-05-09T23:36:27.561Z,36.92
2024-05-09T23:38:58.374Z,36.90
2024-05-09T23:41:29.007Z,36.70
2024-05-09T23:43:59.329Z,36.76
2024-05-09T23:46:30.085Z,36.68
2024-05-09T23:49:00.714Z,36.78
2024-05-09T23:51:31.716Z,36.89
2024-05-09T23:54:02.170Z,36.83
2024-05-09T23:56:32.528Z,36.76
2024-05-09T23:59:02.915Z,36.80
